Time;durP1;ratioP1;P1;durP2;ratioP2;P2;SDS_P1;SDS_P2;PMS_P1;PMS_P2;Temp;Humidity;BMP_temperature;BMP_pressure;BME280_temperature;BME280_humidity;BME280_pressure;Samples;Min_cycle;Max_cycle;Signal;HPM_P1;HPM_P2
2023/08/15 00:01:24;;;;;;;11.07;7.15;;;;;;;;;;4996879;28;20554;-52
2023/08/15 00:03:51;;;;;;;9.48;6.55;;;;;;;;;;4996885;28;20209;-50
2023/08/15 00:06:20;;;;;;;10.60;7.30;;;;;;;;;;4996758;28;20222;-50
2023/08/15 00:08:53;;;;;;;10.70;7.13;;;;;;;;;;4995308;28;20202;-53
2023/08/15 00:11:23;;;;;;;12.70;7.63;;;;;;;;;;4996398;28;20695;-51
2023/08/15 00:13:55;;;;;;;9.93;7.32;;;;;;;;;;4996804;28;20249;-52
2023/08/15 00:16:23;;;;;;;8.73;6.40;;;;;;;;;;4996528;28;20216;-51
2023/08/15 00:18:50;;;;;;;13.57;7.35;;;;;;;;;;4996882;28;20560;-54
2023/08/15 00:21:17;;;;;;;9.88;7.72;;;;;;;;;;4996333;28;20618;-50
2023/08/15 00:23:45;;;;;;;17.70;7.35;;;;;;;;;;4996290;28;20206;-50
2023/08/15 00:26:12;;;;;;;12.73;7.45;;;;;;;;;;4996177;28;20576;-54
2023/08/15 00:28:40;;;;;;;11.40;6.90;;;;;;;;;;4995301;28;20213;-51
2023/08/15 00:31:07;;;;;;;8.85;7.07;;;;;;;;;;4996476;28;20201;-50
2023/08/15 00:33:34;;;;;;;8.05;6.65;;;;;;;;;;4996165;28;20206;-53
2023/08/15 00:36:03;;;;;;;11.75;7.53;;;;;;;;;;4995002;28;20218;-53
2023/08/15 00:38:30;;;;;;;9.82;7.07;;;;;;;;;;4994726;28;20606;-54
2023/08/15 00:40:57;;;;;;;13.40;8.20;;;;;;;;;;4995055;28;20206;-53
2023/08/15 00:43:25;;;;;;;9.65;7.10;;;;;;;;;;4995020;28;20206;-52
2023/08/15 00:45:52;;;;;;;10.85;7.32;;;;;;;;;;4994501;28;20786;-51
2023/08/15 00:48:20;;;;;;;12.48;7.03;;;;;;;;;;4994193;28;20210;-53
2023/08/15 00:50:50;;;;;;;12.18;6.82;;;;;;;;;;4995653;28;20212;-51
2023/08/15 00:53:18;;;;;;;8.80;6.85;;;;;;;;;;4994981;28;20218;-52
2023/08/15 00:55:46;;;;;;;10.45;6.88;;;;;;;;;;4995877;28;20210;-52
2023/08/15 00:58:14;;;;;;;11.50;7.88;;;;;;;;;;4994516;28;20663;-52
2023/08/15 01:00:42;;;;;;;10.68;7.15;;;;;;;;;;4978652;28;20290;-53
2023/08/15 01:03:09;;;;;;;9.40;6.97;;;;;;;;;;4994350;28;20205;-52
2023/08/15 01:05:38;;;;;;;10.45;7.45;;;;;;;;;;4995286;28;20244;-52
2023/08/15 01:08:07;;;;;;;11.45;7.15;;;;;;;;;;4995551;28;20615;-50
2023/08/15 01:10:34;;;;;;;11.85;7.13;;;;;;;;;;4995395;28;20198;-51
2023/08/15 01:13:22;;;;;;;11.70;6.63;;;;;;;;;;4994289;28;20619;-54
2023/08/15 01:15:51;;;;;;;11.48;6.47;;;;;;;;;;4995473;28;20206;-50
2023/08/15 01:18:29;;;;;;;9.38;6.60;;;;;;;;;;4995217;28;20685;-52
2023/08/15 01:20:56;;;;;;;9.63;6.78;;;;;;;;;;4994398;28;20186;-54
2023/08/15 01:23:36;;;;;;;9.23;6.82;;;;;;;;;;4995213;28;20210;-55
2023/08/15 01:26:04;;;;;;;7.43;5.72;;;;;;;;;;4995241;28;20225;-51
2023/08/15 01:28:32;;;;;;;13.15;6.65;;;;;;;;;;4994963;28;20198;-51
2023/08/15 01:31:06;;;;;;;9.38;6.22;;;;;;;;;;4995397;28;20209;-50
2023/08/15 01:33:40;;;;;;;12.45;6.60;;;;;;;;;;4995291;28;20212;-51
2023/08/15 01:36:25;;;;;;;8.13;6.20;;;;;;;;;;4993944;28;20263;-58
2023/08/15 01:39:01;;;;;;;11.40;6.25;;;;;;;;;;4993707;28;20214;-52
2023/08/15 01:41:29;;;;;;;10.43;5.90;;;;;;;;;;4994224;28;20229;-52
2023/08/15 01:43:57;;;;;;;9.80;6.35;;;;;;;;;;4993823;28;20202;-51
2023/08/15 01:46:24;;;;;;;9.73;5.82;;;;;;;;;;4993617;28;20260;-51
2023/08/15 01:48:51;;;;;;;12.60;6.47;;;;;;;;;;4994834;28;20610;-50
2023/08/15 01:51:18;;;;;;;11.98;6.28;;;;;;;;;;4994737;28;20727;-51
2023/08/15 01:53:45;;;;;;;14.30;6.18;;;;;;;;;;4994878;28;20241;-55
2023/08/15 01:56:13;;;;;;;8.05;6.13;;;;;;;;;;4993560;28;20214;-53
2023/08/15 01:58:40;;;;;;;9.35;5.88;;;;;;;;;;4993812;28;20206;-54
2023/08/15 02:01:07;;;;;;;6.68;5.20;;;;;;;;;;4992355;28;20206;-52
2023/08/15 02:03:34;;;;;;;5.97;5.00;;;;;;;;;;4994520;28;20690;-53
2023/08/15 02:06:03;;;;;;;9.75;6.45;;;;;;;;;;4994676;28;20226;-55
2023/08/15 02:08:30;;;;;;;6.95;5.53;;;;;;;;;;4994304;28;20202;-51
2023/08/15 02:11:01;;;;;;;9.07;6.25;;;;;;;;;;4993148;28;20210;-52
2023/08/15 02:13:32;;;;;;;9.13;5.95;;;;;;;;;;4994561;28;20206;-51
2023/08/15 02:16:02;;;;;;;10.32;6.30;;;;;;;;;;4993438;28;20214;-52
2023/08/15 02:18:31;;;;;;;10.65;6.75;;;;;;;;;;4993046;28;20202;-53
2023/08/15 02:20:58;;;;;;;11.00;6.72;;;;;;;;;;4994163;28;20574;-53
2023/08/15 02:23:25;;;;;;;8.57;6.18;;;;;;;;;;4993281;28;20202;-51
2023/08/15 02:25:53;;;;;;;7.90;6.20;;;;;;;;;;4994004;28;20226;-51
2023/08/15 02:28:20;;;;;;;12.75;6.45;;;;;;;;;;4994414;28;20202;-53
2023/08/15 02:30:52;;;;;;;8.20;6.38;;;;;;;;;;4993124;28;20202;-53
2023/08/15 02:33:20;;;;;;;9.57;6.60;;;;;;;;;;4993881;28;20556;-53
2023/08/15 02:35:47;;;;;;;10.80;6.57;;;;;;;;;;4994196;28;20222;-50
2023/08/15 02:38:15;;;;;;;9.95;6.80;;;;;;;;;;4994365;28;20599;-50
2023/08/15 02:40:42;;;;;;;9.88;6.75;;;;;;;;;;4993807;28;20225;-50
2023/08/15 02:43:11;;;;;;;8.35;6.20;;;;;;;;;;4992636;28;20202;-52
2023/08/15 02:45:39;;;;;;;9.50;6.70;;;;;;;;;;4992393;28;20686;-53
2023/08/15 02:48:06;;;;;;;10.40;6.60;;;;;;;;;;4992987;28;20212;-54
2023/08/15 02:50:33;;;;;;;8.85;6.70;;;;;;;;;;4993785;28;20568;-51
2023/08/15 02:53:00;;;;;;;11.48;7.18;;;;;;;;;;4992602;28;20578;-51
2023/08/15 02:55:27;;;;;;;10.15;7.13;;;;;;;;;;4992522;28;20220;-52
2023/08/15 02:57:56;;;;;;;10.20;6.70;;;;;;;;;;4992338;28;20686;-56
2023/08/15 03:00:23;;;;;;;11.23;6.70;;;;;;;;;;4993506;28;20586;-57
2023/08/15 03:02:50;;;;;;;14.23;6.57;;;;;;;;;;4993766;28;20209;-51
2023/08/15 03:05:17;;;;;;;8.95;6.90;;;;;;;;;;4993581;28;20301;-51
2023/08/15 03:07:45;;;;;;;10.95;6.80;;;;;;;;;;4993458;28;20209;-55
2023/08/15 03:10:12;;;;;;;8.63;6.43;;;;;;;;;;4993454;28;20208;-51
2023/08/15 03:12:39;;;;;;;10.90;7.00;;;;;;;;;;4995180;28;20240;-56
2023/08/15 03:15:06;;;;;;;7.80;6.75;;;;;;;;;;4996559;28;20205;-56
2023/08/15 03:17:34;;;;;;;9.10;6.43;;;;;;;;;;4995324;28;20212;-53
2023/08/15 03:20:01;;;;;;;8.98;6.75;;;;;;;;;;4958231;28;20219;-55
2023/08/15 03:22:29;;;;;;;10.15;7.35;;;;;;;;;;4971816;28;20234;-55
2023/08/15 03:24:57;;;;;;;11.43;6.68;;;;;;;;;;4971943;28;20287;-53
2023/08/15 03:27:25;;;;;;;10.13;7.00;;;;;;;;;;4972308;28;20231;-57
2023/08/15 03:29:52;;;;;;;9.75;7.25;;;;;;;;;;4956986;28;20259;-54
2023/08/15 03:32:20;;;;;;;13.15;7.18;;;;;;;;;;4973332;28;20219;-55
2023/08/15 03:34:47;;;;;;;9.63;6.88;;;;;;;;;;4957089;29;20203;-55
2023/08/15 03:37:14;;;;;;;11.38;6.88;;;;;;;;;;4972876;28;20212;-54
2023/08/15 03:39:41;;;;;;;9.23;7.15;;;;;;;;;;4958076;28;20239;-54
2023/08/15 03:42:09;;;;;;;9.30;7.32;;;;;;;;;;4958817;28;20207;-55
2023/08/15 03:44:38;;;;;;;8.38;6.47;;;;;;;;;;4973285;28;20693;-55
2023/08/15 03:47:05;;;;;;;12.80;7.60;;;;;;;;;;4973125;28;20308;-51
2023/08/15 03:49:32;;;;;;;8.77;6.93;;;;;;;;;;4958103;28;20676;-56
2023/08/15 03:52:00;;;;;;;13.02;7.53;;;;;;;;;;4958345;28;20211;-51
2023/08/15 03:54:28;;;;;;;10.98;6.90;;;;;;;;;;4973422;28;20211;-51
2023/08/15 03:56:55;;;;;;;10.68;7.55;;;;;;;;;;4958235;28;20263;-50
2023/08/15 03:59:22;;;;;;;12.88;7.40;;;;;;;;;;4973058;28;20207;-55
2023/08/15 04:01:49;;;;;;;10.07;7.78;;;;;;;;;;4972708;28;20623;-55
2023/08/15 04:04:16;;;;;;;10.55;7.55;;;;;;;;;;4973355;28;20332;-57
2023/08/15 04:06:44;;;;;;;11.27;7.72;;;;;;;;;;4972606;28;20254;-50
2023/08/15 04:09:11;;;;;;;9.57;7.20;;;;;;;;;;4956869;29;20203;-50
2023/08/15 04:11:39;;;;;;;11.02;6.28;;;;;;;;;;4972395;28;20246;-52
2023/08/15 04:14:06;;;;;;;11.77;7.32;;;;;;;;;;4972824;28;20230;-50
2023/08/15 04:16:33;;;;;;;10.43;7.30;;;;;;;;;;4972815;28;20220;-54
2023/08/15 04:19:01;;;;;;;10.90;7.15;;;;;;;;;;4979591;28;20652;-52
2023/08/15 04:21:29;;;;;;;16.42;8.07;;;;;;;;;;4975369;28;20214;-56
2023/08/15 04:23:56;;;;;;;12.50;7.65;;;;;;;;;;4974902;28;20652;-52
2023/08/15 04:26:24;;;;;;;11.65;7.38;;;;;;;;;;4976634;28;20231;-50
2023/08/15 04:28:51;;;;;;;10.43;7.68;;;;;;;;;;4975697;28;20286;-51
2023/08/15 04:31:18;;;;;;;14.75;7.28;;;;;;;;;;4976058;28;20566;-51
2023/08/15 04:33:45;;;;;;;8.30;6.82;;;;;;;;;;4976636;28;20667;-51
2023/08/15 04:36:12;;;;;;;12.52;7.13;;;;;;;;;;4987166;28;20210;-50
2023/08/15 04:38:39;;;;;;;8.88;7.35;;;;;;;;;;4995027;28;20683;-50
2023/08/15 04:41:07;;;;;;;9.30;7.40;;;;;;;;;;4995311;28;20202;-49
2023/08/15 04:43:34;;;;;;;11.98;6.75;;;;;;;;;;4995907;28;20297;-50
2023/08/15 04:46:02;;;;;;;10.27;7.18;;;;;;;;;;4994660;28;20210;-52
2023/08/15 04:48:29;;;;;;;11.40;6.82;;;;;;;;;;4992931;28;20210;-51
2023/08/15 04:50:56;;;;;;;11.82;6.78;;;;;;;;;;4974337;28;20226;-56
2023/08/15 04:53:23;;;;;;;9.68;6.90;;;;;;;;;;4972843;28;20205;-58
2023/08/15 04:55:50;;;;;;;10.52;6.78;;;;;;;;;;4974643;28;20210;-51
2023/08/15 04:58:17;;;;;;;8.88;6.78;;;;;;;;;;4973594;28;20195;-51
2023/08/15 05:00:45;;;;;;;8.18;6.07;;;;;;;;;;4975777;28;20195;-53
2023/08/15 05:03:12;;;;;;;11.55;6.15;;;;;;;;;;4973860;28;20207;-50
2023/08/15 05:05:39;;;;;;;8.23;6.15;;;;;;;;;;4974835;28;20218;-53
2023/08/15 05:08:06;;;;;;;7.75;6.00;;;;;;;;;;4973773;28;20226;-57
2023/08/15 05:10:34;;;;;;;7.65;5.40;;;;;;;;;;4973467;28;20696;-58
2023/08/15 05:13:02;;;;;;;10.38;5.47;;;;;;;;;;4975904;28;20321;-56
2023/08/15 05:15:29;;;;;;;8.60;5.22;;;;;;;;;;4969890;28;20207;-58
2023/08/15 05:17:57;;;;;;;7.93;5.53;;;;;;;;;;4968126;28;20233;-54
2023/08/15 05:20:25;;;;;;;8.77;5.72;;;;;;;;;;4974527;28;20209;-55
2023/08/15 05:22:52;;;;;;;11.65;5.65;;;;;;;;;;4981397;28;20253;-57
2023/08/15 05:25:21;;;;;;;8.65;6.05;;;;;;;;;;4973622;28;20206;-54
2023/08/15 05:27:49;;;;;;;8.10;4.90;;;;;;;;;;4973329;28;20221;-54
2023/08/15 05:30:17;;;;;;;6.80;4.53;;;;;;;;;;4973868;28;20199;-51
2023/08/15 05:32:44;;;;;;;6.05;4.63;;;;;;;;;;4973326;28;20213;-53
2023/08/15 05:35:12;;;;;;;7.47;4.88;;;;;;;;;;4977692;28;20211;-51
2023/08/15 05:37:40;;;;;;;9.10;4.47;;;;;;;;;;4974161;28;20734;-51
2023/08/15 05:40:08;;;;;;;6.95;4.45;;;;;;;;;;4975611;28;20203;-48
2023/08/15 05:42:35;;;;;;;8.95;5.13;;;;;;;;;;4974165;28;20207;-48
2023/08/15 05:45:02;;;;;;;8.02;4.65;;;;;;;;;;4975547;28;20210;-48
2023/08/15 05:47:29;;;;;;;8.68;4.75;;;;;;;;;;4973669;28;20258;-50
2023/08/15 05:49:57;;;;;;;8.18;4.05;;;;;;;;;;4974326;28;20202;-51
2023/08/15 05:52:25;;;;;;;6.30;4.00;;;;;;;;;;4968663;28;20226;-49
2023/08/15 05:54:53;;;;;;;7.03;3.80;;;;;;;;;;4974697;28;20226;-50
2023/08/15 05:57:20;;;;;;;5.32;4.00;;;;;;;;;;4974363;28;20218;-50
2023/08/15 05:59:48;;;;;;;10.40;3.60;;;;;;;;;;4974441;28;20277;-50
2023/08/15 06:02:15;;;;;;;6.70;4.05;;;;;;;;;;4974470;28;20313;-54
2023/08/15 06:04:42;;;;;;;6.15;3.65;;;;;;;;;;4974646;28;20252;-53
2023/08/15 06:07:09;;;;;;;5.10;3.35;;;;;;;;;;4973858;28;20252;-52
2023/08/15 06:09:37;;;;;;;4.93;3.60;;;;;;;;;;4974314;28;20234;-51
2023/08/15 06:12:04;;;;;;;7.30;3.60;;;;;;;;;;4974579;28;20330;-49
2023/08/15 06:14:33;;;;;;;5.55;3.45;;;;;;;;;;4974060;28;20708;-50
2023/08/15 06:17:00;;;;;;;7.50;3.75;;;;;;;;;;4974337;28;20238;-50
2023/08/15 06:19:28;;;;;;;7.75;3.40;;;;;;;;;;4974012;28;20231;-50
2023/08/15 06:21:55;;;;;;;10.60;3.72;;;;;;;;;;4971951;28;20239;-49
2023/08/15 06:24:22;;;;;;;5.85;3.53;;;;;;;;;;4973948;28;20227;-50
2023/08/15 06:26:49;;;;;;;5.72;3.10;;;;;;;;;;4974100;28;20604;-48
2023/08/15 06:29:16;;;;;;;5.10;3.22;;;;;;;;;;4974125;28;20226;-51
2023/08/15 06:31:43;;;;;;;7.45;3.42;;;;;;;;;;4970677;28;20306;-52
2023/08/15 06:34:11;;;;;;;5.38;3.33;;;;;;;;;;4971183;28;20703;-56
2023/08/15 06:36:39;;;;;;;7.63;3.90;;;;;;;;;;4969242;28;20262;-59
2023/08/15 06:39:06;;;;;;;6.43;3.35;;;;;;;;;;4973017;28;20231;-56
2023/08/15 06:41:33;;;;;;;4.47;3.30;;;;;;;;;;4962131;28;20325;-58
2023/08/15 06:44:01;;;;;;;7.28;3.22;;;;;;;;;;4955931;28;20237;-57
2023/08/15 06:46:29;;;;;;;5.82;3.90;;;;;;;;;;4954614;28;20254;-53
2023/08/15 06:48:56;;;;;;;5.03;3.13;;;;;;;;;;4970534;28;20225;-53
2023/08/15 06:51:23;;;;;;;4.38;3.00;;;;;;;;;;4983903;28;20227;-51
2023/08/15 06:53:50;;;;;;;10.30;3.30;;;;;;;;;;4978070;28;20587;-49
2023/08/15 06:56:18;;;;;;;5.53;2.67;;;;;;;;;;4977590;28;20222;-50
2023/08/15 06:58:45;;;;;;;6.30;3.22;;;;;;;;;;4977730;28;20695;-50
2023/08/15 07:01:12;;;;;;;4.68;2.67;;;;;;;;;;4977214;28;20624;-53
2023/08/15 07:03:39;;;;;;;4.03;2.38;;;;;;;;;;4977894;28;20281;-50
2023/08/15 07:06:06;;;;;;;5.75;3.13;;;;;;;;;;4977061;28;20230;-51
2023/08/15 07:08:34;;;;;;;5.55;3.03;;;;;;;;;;4976006;28;20289;-54
2023/08/15 07:11:01;;;;;;;7.25;3.90;;;;;;;;;;4970864;28;20219;-50
2023/08/15 07:13:31;;;;;;;6.85;3.47;;;;;;;;;;4965005;28;20226;-51
2023/08/15 07:15:58;;;;;;;30.40;6.20;;;;;;;;;;4979759;28;20243;-59
2023/08/15 07:18:26;;;;;;;10.20;3.58;;;;;;;;;;4973936;28;20238;-57
2023/08/15 07:20:53;;;;;;;5.45;3.10;;;;;;;;;;4976378;28;20238;-55
2023/08/15 07:23:20;;;;;;;34.30;7.88;;;;;;;;;;4975042;28;20231;-58
2023/08/15 07:25:48;;;;;;;11.80;3.08;;;;;;;;;;4971241;28;20226;-60
2023/08/15 07:28:16;;;;;;;10.02;3.70;;;;;;;;;;4957123;28;20247;-58
2023/08/15 07:30:45;;;;;;;17.33;4.70;;;;;;;;;;4964962;28;20241;-58
2023/08/15 07:33:16;;;;;;;11.27;3.78;;;;;;;;;;4970202;28;20234;-58
2023/08/15 07:35:43;;;;;;;33.17;8.57;;;;;;;;;;4982841;28;20227;-59
2023/08/15 07:38:10;;;;;;;6.57;3.17;;;;;;;;;;4996231;28;20241;-59
2023/08/15 07:40:37;;;;;;;15.13;2.28;;;;;;;;;;4977863;28;20234;-58
2023/08/15 07:43:05;;;;;;;9.68;2.63;;;;;;;;;;4975380;28;20527;-59
2023/08/15 07:45:32;;;;;;;8.32;3.05;;;;;;;;;;4974225;28;20278;-56
2023/08/15 07:47:59;;;;;;;5.57;2.50;;;;;;;;;;4975182;28;20246;-53
2023/08/15 07:50:28;;;;;;;4.32;2.05;;;;;;;;;;4975250;28;20243;-58
2023/08/15 07:52:59;;;;;;;6.32;3.03;;;;;;;;;;4974612;28;20589;-59
2023/08/15 07:55:27;;;;;;;3.13;2.05;;;;;;;;;;4976197;28;20231;-56
2023/08/15 07:57:58;;;;;;;4.20;2.17;;;;;;;;;;4976616;28;20235;-58
2023/08/15 08:00:27;;;;;;;6.20;1.92;;;;;;;;;;4975585;28;20583;-58
2023/08/15 08:02:56;;;;;;;5.05;2.58;;;;;;;;;;4975705;28;20750;-56
2023/08/15 08:05:23;;;;;;;3.90;1.92;;;;;;;;;;4975577;28;20231;-59
2023/08/15 08:07:51;;;;;;;2.45;1.55;;;;;;;;;;4975881;28;20301;-58
2023/08/15 08:10:18;;;;;;;4.13;1.63;;;;;;;;;;4975881;28;20232;-59
2023/08/15 08:12:45;;;;;;;3.78;1.98;;;;;;;;;;4975850;28;20246;-59
2023/08/15 08:15:13;;;;;;;3.85;1.80;;;;;;;;;;4975699;28;20314;-59
2023/08/15 08:17:41;;;;;;;1.75;1.60;;;;;;;;;;4979098;28;20706;-59
2023/08/15 08:20:12;;;;;;;6.35;1.67;;;;;;;;;;4989449;28;20225;-54
2023/08/15 08:22:40;;;;;;;2.97;2.10;;;;;;;;;;4976520;28;20237;-50
2023/08/15 08:25:21;;;;;;;2.65;1.90;;;;;;;;;;4976926;28;20211;-49
2023/08/15 08:27:49;;;;;;;2.72;1.77;;;;;;;;;;4976733;28;20231;-48
2023/08/15 08:30:19;;;;;;;7.05;1.85;;;;;;;;;;4990325;28;20621;-54
2023/08/15 08:32:47;;;;;;;2.67;1.88;;;;;;;;;;4968240;28;20214;-50
2023/08/15 08:35:17;;;;;;;3.10;1.63;;;;;;;;;;4969710;28;20590;-58
2023/08/15 08:37:45;;;;;;;1.92;1.50;;;;;;;;;;4994925;28;20230;-56
2023/08/15 08:40:12;;;;;;;5.18;1.70;;;;;;;;;;4978216;28;20221;-57
2023/08/15 08:42:40;;;;;;;3.28;1.50;;;;;;;;;;4976918;28;20231;-55
2023/08/15 08:45:11;;;;;;;2.05;1.50;;;;;;;;;;4975050;28;20582;-57
2023/08/15 08:47:40;;;;;;;4.60;1.50;;;;;;;;;;4975459;28;20251;-52
2023/08/15 08:50:11;;;;;;;2.55;1.80;;;;;;;;;;4975302;28;20231;-56
2023/08/15 08:52:49;;;;;;;3.63;1.85;;;;;;;;;;4984356;28;20584;-52
2023/08/15 08:55:19;;;;;;;4.72;1.50;;;;;;;;;;4963311;28;20294;-59
2023/08/15 08:57:52;;;;;;;2.55;1.58;;;;;;;;;;4974041;28;20238;-58
2023/08/15 09:00:25;;;;;;;8.90;2.25;;;;;;;;;;4975105;28;20313;-57
2023/08/15 09:02:53;;;;;;;2.10;1.65;;;;;;;;;;4973643;28;20627;-59
2023/08/15 09:05:20;;;;;;;3.10;2.20;;;;;;;;;;4974513;28;20753;-60
2023/08/15 09:07:49;;;;;;;3.35;2.10;;;;;;;;;;4974665;28;20235;-60
2023/08/15 09:10:16;;;;;;;2.63;1.75;;;;;;;;;;4973065;28;20723;-59
2023/08/15 09:12:45;;;;;;;3.78;1.95;;;;;;;;;;4974164;28;20849;-58
2023/08/15 09:15:12;;;;;;;2.50;1.83;;;;;;;;;;4975229;28;20281;-60
2023/08/15 09:17:41;;;;;;;4.68;2.00;;;;;;;;;;4974713;28;20234;-59
2023/08/15 09:20:11;;;;;;;5.63;2.38;;;;;;;;;;4966835;28;20254;-58
2023/08/15 09:22:41;;;;;;;3.83;2.00;;;;;;;;;;4972809;28;20219;-58
2023/08/15 09:25:08;;;;;;;2.65;1.83;;;;;;;;;;4974608;28;20234;-59
2023/08/15 09:27:37;;;;;;;3.15;2.05;;;;;;;;;;4974310;28;20710;-59
2023/08/15 09:30:12;;;;;;;4.78;1.75;;;;;;;;;;4974623;28;20309;-59
2023/08/15 09:32:40;;;;;;;4.78;1.60;;;;;;;;;;4967837;28;20222;-56
2023/08/15 09:35:09;;;;;;;2.53;1.95;;;;;;;;;;4967219;28;20230;-58
2023/08/15 09:37:41;;;;;;;3.22;2.30;;;;;;;;;;4972064;28;20239;-59
2023/08/15 09:40:14;;;;;;;5.32;2.53;;;;;;;;;;4974275;28;20730;-57
2023/08/15 09:42:43;;;;;;;5.07;2.08;;;;;;;;;;4974269;28;20274;-59
2023/08/15 09:45:15;;;;;;;2.50;1.90;;;;;;;;;;4968051;28;20227;-59
2023/08/15 09:47:43;;;;;;;5.10;1.45;;;;;;;;;;4962852;28;20364;-60
2023/08/15 09:50:13;;;;;;;2.70;1.85;;;;;;;;;;4967272;28;20227;-59
2023/08/15 09:52:41;;;;;;;4.95;1.83;;;;;;;;;;4974155;28;20241;-59
2023/08/15 09:55:14;;;;;;;3.03;1.73;;;;;;;;;;4974583;28;20306;-61
2023/08/15 09:57:42;;;;;;;3.53;2.25;;;;;;;;;;4974345;28;20707;-58
2023/08/15 10:00:17;;;;;;;4.07;2.30;;;;;;;;;;4974113;28;20233;-59
2023/08/15 10:02:52;;;;;;;2.92;2.05;;;;;;;;;;4973421;28;20237;-59
2023/08/15 10:05:21;;;;;;;5.07;1.98;;;;;;;;;;4972845;28;20234;-58
2023/08/15 10:07:50;;;;;;;4.00;2.05;;;;;;;;;;4974009;28;20234;-58
2023/08/15 10:10:17;;;;;;;4.20;2.10;;;;;;;;;;4974057;28;20241;-60
2023/08/15 10:12:46;;;;;;;3.67;2.03;;;;;;;;;;4973684;28;20238;-59
2023/08/15 10:15:13;;;;;;;2.80;2.20;;;;;;;;;;4973092;28;20227;-59
2023/08/15 10:17:40;;;;;;;3.53;2.05;;;;;;;;;;4991941;28;20238;-59
2023/08/15 10:20:12;;;;;;;3.45;2.17;;;;;;;;;;4980539;28;20239;-57
2023/08/15 10:22:40;;;;;;;10.23;2.33;;;;;;;;;;4973021;28;20235;-58
2023/08/15 10:25:22;;;;;;;3.83;2.17;;;;;;;;;;4974192;28;20230;-60
2023/08/15 10:27:52;;;;;;;2.28;1.63;;;;;;;;;;4973891;28;20238;-59
2023/08/15 10:30:29;;;;;;;2.55;1.88;;;;;;;;;;4973886;28;20237;-58
2023/08/15 10:33:03;;;;;;;6.43;1.98;;;;;;;;;;4972334;28;20556;-58
2023/08/15 10:35:31;;;;;;;4.38;2.00;;;;;;;;;;4971715;28;20238;-59
2023/08/15 10:38:15;;;;;;;2.75;1.80;;;;;;;;;;4973503;28;20234;-59
2023/08/15 10:40:44;;;;;;;2.03;1.77;;;;;;;;;;4973483;28;20279;-58
2023/08/15 10:43:12;;;;;;;3.92;1.50;;;;;;;;;;4973265;28;20234;-59
2023/08/15 10:45:45;;;;;;;3.40;1.83;;;;;;;;;;4973868;28;20230;-59
2023/08/15 10:48:13;;;;;;;5.55;1.80;;;;;;;;;;4973084;28;20242;-59
2023/08/15 10:50:47;;;;;;;4.00;1.85;;;;;;;;;;4972456;28;20238;-60
2023/08/15 10:53:15;;;;;;;3.03;2.00;;;;;;;;;;4972410;28;20226;-59
2023/08/15 10:55:46;;;;;;;3.60;1.70;;;;;;;;;;4973210;28;20285;-58
2023/08/15 10:58:14;;;;;;;4.45;1.65;;;;;;;;;;4973286;28;20226;-60
2023/08/15 11:00:41;;;;;;;5.63;2.10;;;;;;;;;;4972913;28;20222;-59
2023/08/15 11:03:09;;;;;;;6.07;1.90;;;;;;;;;;4972948;28;20238;-59
2023/08/15 11:05:36;;;;;;;4.80;2.08;;;;;;;;;;4972226;28;20233;-59
2023/08/15 11:08:15;;;;;;;3.63;1.83;;;;;;;;;;4972658;28;20292;-59
2023/08/15 11:10:43;;;;;;;2.65;1.92;;;;;;;;;;4972647;28;20324;-58
2023/08/15 11:13:11;;;;;;;5.22;2.00;;;;;;;;;;4972542;28;20593;-59
2023/08/15 11:15:38;;;;;;;2.85;2.13;;;;;;;;;;4972747;28;20227;-60
2023/08/15 11:18:06;;;;;;;2.70;1.65;;;;;;;;;;4972868;28;20715;-58
2023/08/15 11:20:33;;;;;;;5.88;1.80;;;;;;;;;;4973015;28;20227;-58
2023/08/15 11:23:00;;;;;;;3.65;1.92;;;;;;;;;;4971607;28;20231;-59
2023/08/15 11:25:27;;;;;;;4.45;1.67;;;;;;;;;;4972945;28;20237;-59
2023/08/15 11:27:55;;;;;;;6.07;1.90;;;;;;;;;;4973277;28;20242;-59
2023/08/15 11:30:22;;;;;;;3.30;2.03;;;;;;;;;;4972770;28;20755;-59
2023/08/15 11:32:49;;;;;;;4.00;2.10;;;;;;;;;;4974226;28;20227;-59
2023/08/15 11:35:17;;;;;;;3.75;1.55;;;;;;;;;;4976989;28;20234;-58
2023/08/15 11:37:45;;;;;;;2.63;1.67;;;;;;;;;;4968364;28;20225;-59
2023/08/15 11:40:12;;;;;;;1.75;1.55;;;;;;;;;;4964382;28;20231;-59
2023/08/15 11:42:39;;;;;;;2.58;1.50;;;;;;;;;;4968169;28;20695;-56
2023/08/15 11:45:21;;;;;;;10.85;2.25;;;;;;;;;;4975572;28;20721;-55
2023/08/15 11:48:00;;;;;;;1.85;1.52;;;;;;;;;;4975151;28;20223;-56
2023/08/15 11:50:29;;;;;;;4.72;1.95;;;;;;;;;;4976817;28;20245;-57
2023/08/15 11:53:12;;;;;;;3.28;1.92;;;;;;;;;;4976755;28;20230;-56
2023/08/15 11:55:40;;;;;;;5.95;2.13;;;;;;;;;;4976698;28;20261;-56
2023/08/15 11:58:29;;;;;;;4.82;2.00;;;;;;;;;;4973897;28;20576;-58
2023/08/15 12:01:06;;;;;;;5.60;1.95;;;;;;;;;;4968441;28;20226;-58
2023/08/15 12:03:34;;;;;;;5.65;2.10;;;;;;;;;;4963666;28;20227;-55
2023/08/15 12:06:05;;;;;;;7.93;2.22;;;;;;;;;;4976597;28;20235;-56
2023/08/15 12:08:33;;;;;;;5.68;2.08;;;;;;;;;;4976383;28;20699;-57
2023/08/15 12:11:04;;;;;;;7.85;2.17;;;;;;;;;;4976364;28;20227;-58
2023/08/15 12:13:36;;;;;;;10.55;2.35;;;;;;;;;;4976573;28;20223;-57
2023/08/15 12:16:04;;;;;;;8.20;2.38;;;;;;;;;;4975941;28;20226;-57
2023/08/15 12:18:32;;;;;;;12.35;2.20;;;;;;;;;;4975983;28;20234;-56
2023/08/15 12:21:00;;;;;;;4.38;1.92;;;;;;;;;;4976743;28;20237;-58
2023/08/15 12:23:28;;;;;;;14.70;2.58;;;;;;;;;;4976285;28;20226;-59
2023/08/15 12:25:56;;;;;;;7.63;2.47;;;;;;;;;;4965363;28;20226;-60
2023/08/15 12:28:23;;;;;;;11.27;2.85;;;;;;;;;;4975807;28;20636;-61
2023/08/15 12:30:54;;;;;;;6.35;2.28;;;;;;;;;;4975546;28;20238;-60
2023/08/15 12:33:22;;;;;;;7.60;2.33;;;;;;;;;;4975629;28;20606;-60
2023/08/15 12:36:06;;;;;;;6.60;2.50;;;;;;;;;;4975964;28;20699;-60
2023/08/15 12:38:34;;;;;;;6.13;2.05;;;;;;;;;;4975362;28;20235;-59
2023/08/15 12:41:01;;;;;;;5.63;2.05;;;;;;;;;;4975777;28;20783;-60
2023/08/15 12:43:29;;;;;;;4.60;2.08;;;;;;;;;;4975074;28;20726;-59
2023/08/15 12:45:56;;;;;;;3.80;2.13;;;;;;;;;;4973956;28;20688;-60
2023/08/15 12:48:23;;;;;;;4.55;2.05;;;;;;;;;;4970344;28;20648;-60
2023/08/15 12:50:50;;;;;;;4.53;1.85;;;;;;;;;;4966630;28;20231;-59
2023/08/15 12:53:18;;;;;;;5.43;1.80;;;;;;;;;;4968256;28;20723;-60
2023/08/15 12:55:45;;;;;;;5.35;2.10;;;;;;;;;;4965812;28;20227;-58
2023/08/15 12:58:13;;;;;;;5.10;1.95;;;;;;;;;;4963341;28;20218;-60
2023/08/15 13:00:41;;;;;;;7.80;1.90;;;;;;;;;;4965034;28;20298;-59
2023/08/15 13:03:09;;;;;;;3.47;1.60;;;;;;;;;;4966417;28;20223;-56
2023/08/15 13:05:36;;;;;;;4.07;1.30;;;;;;;;;;4974719;28;20269;-57
2023/08/15 13:08:04;;;;;;;2.83;1.60;;;;;;;;;;4956997;28;20716;-58
2023/08/15 13:10:31;;;;;;;6.13;1.90;;;;;;;;;;4964489;28;20564;-58
2023/08/15 13:12:58;;;;;;;2.72;1.77;;;;;;;;;;4962620;28;20230;-59
2023/08/15 13:15:25;;;;;;;3.80;1.95;;;;;;;;;;4965901;28;20227;-57
2023/08/15 13:17:54;;;;;;;5.85;1.63;;;;;;;;;;4964677;28;20222;-60
2023/08/15 13:20:21;;;;;;;6.25;2.00;;;;;;;;;;4964994;28;20238;-59
2023/08/15 13:22:49;;;;;;;3.42;1.70;;;;;;;;;;4975043;28;20238;-58
2023/08/15 13:25:15;;;;;;;4.03;1.50;;;;;;;;;;4986469;28;20237;-60
2023/08/15 13:27:43;;;;;;;4.15;1.60;;;;;;;;;;4993815;28;20699;-59
2023/08/15 13:30:10;;;;;;;3.33;1.38;;;;;;;;;;4980934;28;20345;-59
2023/08/15 13:32:37;;;;;;;4.97;1.88;;;;;;;;;;4974245;28;20237;-59
2023/08/15 13:35:05;;;;;;;6.40;2.00;;;;;;;;;;4973343;28;20317;-60
2023/08/15 13:37:32;;;;;;;3.72;1.63;;;;;;;;;;4984390;28;20234;-58
2023/08/15 13:39:59;;;;;;;3.25;1.48;;;;;;;;;;4993883;28;20245;-59
2023/08/15 13:42:27;;;;;;;5.18;1.77;;;;;;;;;;4993995;28;20226;-59
2023/08/15 13:45:06;;;;;;;3.78;1.55;;;;;;;;;;4993473;28;20273;-59
2023/08/15 13:47:37;;;;;;;3.80;1.40;;;;;;;;;;4993876;28;20642;-59
2023/08/15 13:50:06;;;;;;;6.90;1.90;;;;;;;;;;4967307;28;20239;-60
2023/08/15 13:52:35;;;;;;;4.40;2.00;;;;;;;;;;4954885;28;20628;-60
2023/08/15 13:55:04;;;;;;;7.45;1.73;;;;;;;;;;4955527;28;20250;-57
2023/08/15 13:57:32;;;;;;;2.88;1.42;;;;;;;;;;4972580;28;20234;-59
2023/08/15 14:00:03;;;;;;;4.22;1.70;;;;;;;;;;4973631;28;20667;-59
2023/08/15 14:02:31;;;;;;;4.25;1.80;;;;;;;;;;4974042;28;20242;-58
2023/08/15 14:05:03;;;;;;;5.28;1.40;;;;;;;;;;4974022;28;20242;-59
2023/08/15 14:07:31;;;;;;;6.32;1.67;;;;;;;;;;4974240;28;20704;-59
2023/08/15 14:09:58;;;;;;;1.77;1.20;;;;;;;;;;4974231;28;20234;-60
2023/08/15 14:12:26;;;;;;;3.63;1.80;;;;;;;;;;4973986;28;20244;-60
2023/08/15 14:14:54;;;;;;;3.97;1.48;;;;;;;;;;4973458;28;20277;-58
2023/08/15 14:17:21;;;;;;;4.15;1.50;;;;;;;;;;4973416;28;20245;-59
2023/08/15 14:19:48;;;;;;;4.30;1.73;;;;;;;;;;4974119;28;20237;-59
2023/08/15 14:22:15;;;;;;;4.30;1.77;;;;;;;;;;4974092;28;20234;-59
2023/08/15 14:24:48;;;;;;;2.47;1.65;;;;;;;;;;4973612;28;20235;-59
2023/08/15 14:27:16;;;;;;;3.35;1.98;;;;;;;;;;4973750;28;20234;-59
2023/08/15 14:29:48;;;;;;;3.85;1.70;;;;;;;;;;4972640;28;20614;-57
2023/08/15 14:32:16;;;;;;;3.13;1.60;;;;;;;;;;4973921;28;20558;-58
2023/08/15 14:34:43;;;;;;;5.20;1.80;;;;;;;;;;4973471;28;20245;-59
2023/08/15 14:37:10;;;;;;;4.70;1.50;;;;;;;;;;4973624;28;20226;-60
2023/08/15 14:39:37;;;;;;;3.38;1.73;;;;;;;;;;4973241;28;20254;-58
2023/08/15 14:42:05;;;;;;;3.15;1.55;;;;;;;;;;4973657;28;20253;-59
2023/08/15 14:44:32;;;;;;;5.50;1.70;;;;;;;;;;4973165;28;20235;-59
2023/08/15 14:47:00;;;;;;;4.07;2.00;;;;;;;;;;4973429;28;20226;-58
2023/08/15 14:49:27;;;;;;;3.72;1.73;;;;;;;;;;4974001;28;20242;-59